createdAt,value
2023-05-07T00:00:23.827Z,102247.13
2023-05-07T00:02:52.943Z,102247.66
2023-05-07T00:05:21.679Z,102252.28
2023-05-07T00:07:49.507Z,102245.44
2023-05-07T00:10:17.150Z,102245.16
2023-05-07T00:12:44.747Z,102255.78
2023-05-07T00:15:13.060Z,102255.78
2023-05-07T00:17:40.885Z,102254.81
2023-05-07T00:20:11.074Z,102259.28
2023-05-07T00:22:39.025Z,102262.78
2023-05-07T00:25:07.705Z,102261.50
2023-05-07T00:27:35.379Z,102259.97
2023-05-07T00:30:03.011Z,102263.03
2023-05-07T00:32:30.643Z,102259.28
2023-05-07T00:34:58.302Z,102254.66
2023-05-07T00:37:27.343Z,102255.63
2023-05-07T00:39:55.151Z,102252.16
2023-05-07T00:42:22.757Z,102251.59
2023-05-07T00:44:50.653Z,102244.75
2023-05-07T00:47:18.617Z,102248.53
2023-05-07T00:49:46.766Z,102249.63
2023-05-07T00:52:17.530Z,102244.19
2023-05-07T00:54:47.154Z,102251.59
2023-05-07T00:57:14.897Z,102235.78
2023-05-07T00:59:43.425Z,102236.34
2023-05-07T01:02:11.150Z,102244.16
2023-05-07T01:04:39.562Z,102242.22
2023-05-07T01:07:07.914Z,102240.97
2023-05-07T01:09:37.117Z,102232.72
2023-05-07T01:12:07.079Z,102239.38
2023-05-07T01:14:35.182Z,102226.28
2023-05-07T01:17:03.084Z,102228.63
2023-05-07T01:19:32.354Z,102240.22
2023-05-07T01:22:05.649Z,102239.09
2023-05-07T01:24:35.250Z,102231.84
2023-05-07T01:27:03.872Z,102231.41
2023-05-07T01:29:31.698Z,102235.19
2023-05-07T01:32:01.741Z,102240.22
2023-05-07T01:34:34.196Z,102240.06
2023-05-07T01:37:02.521Z,102232.81
2023-05-07T01:39:32.238Z,102236.03
2023-05-07T01:42:01.657Z,102229.88
2023-05-07T01:44:30.312Z,102229.88
2023-05-07T01:46:59.161Z,102225.53
2023-05-07T01:49:27.173Z,102226.06
2023-05-07T01:51:54.978Z,102220.59
2023-05-07T01:54:28.625Z,102228.28
2023-05-07T01:56:58.332Z,102225.22
2023-05-07T01:59:27.456Z,102225.03
2023-05-07T02:01:56.396Z,102227.88
2023-05-07T02:04:24.462Z,102224.38
2023-05-07T02:06:52.256Z,102229.94
2023-05-07T02:09:20.157Z,102231.88
2023-05-07T02:11:47.775Z,102225.59
2023-05-07T02:14:16.370Z,102236.91
2023-05-07T02:16:45.318Z,102228.81
2023-05-07T02:19:12.975Z,102240.28
2023-05-07T02:21:40.873Z,102232.31
2023-05-07T02:24:08.925Z,102236.38
2023-05-07T02:26:36.543Z,102242.41
2023-05-07T02:29:04.154Z,102241.38
2023-05-07T02:31:31.779Z,102240.28
2023-05-07T02:34:00.723Z,102233.41
2023-05-07T02:36:28.644Z,102240.41
2023-05-07T02:38:57.152Z,102233.28
2023-05-07T02:41:24.806Z,102223.63
2023-05-07T02:43:52.451Z,102235.78
2023-05-07T02:46:20.257Z,102245.44
2023-05-07T02:48:47.840Z,102243.63
2023-05-07T02:51:16.795Z,102255.78
2023-05-07T02:53:44.355Z,102259.41
2023-05-07T02:56:12.165Z,102258.91
2023-05-07T02:58:40.896Z,102249.78
2023-05-07T03:01:08.967Z,102245.03
2023-05-07T03:03:37.207Z,102252.72
2023-05-07T03:06:05.325Z,102254.53
2023-05-07T03:08:34.471Z,102238.88
2023-05-07T03:11:02.101Z,102252.16
2023-05-07T03:13:29.733Z,102249.22
2023-05-07T03:15:57.523Z,102241.06
2023-05-07T03:18:25.262Z,102243.88
2023-05-07T03:20:53.777Z,102243.19
2023-05-07T03:23:24.103Z,102237.03
2023-05-07T03:25:53.720Z,102237.72
2023-05-07T03:28:21.312Z,102235.50
2023-05-07T03:30:48.918Z,102232.53
2023-05-07T03:33:16.582Z,102238.31
2023-05-07T03:35:44.174Z,102235.09
2023-05-07T03:38:11.788Z,102242.94
2023-05-07T03:40:39.504Z,102235.56
2023-05-07T03:43:09.159Z,102247.72
2023-05-07T03:45:36.824Z,102243.91
2023-05-07T03:48:04.898Z,102247.56
2023-05-07T03:50:32.622Z,102238.59
2023-05-07T03:53:00.232Z,102244.59
2023-05-07T03:55:28.150Z,102253.72
2023-05-07T03:57:55.752Z,102253.28
2023-05-07T04:00:24.786Z,102248.06
2023-05-07T04:02:52.475Z,102255.88
2023-05-07T04:05:20.164Z,102252.53
2023-05-07T04:07:47.796Z,102257.03
2023-05-07T04:10:15.492Z,102266.38
2023-05-07T04:12:43.184Z,102260.06
2023-05-07T04:15:11.709Z,102254.16
2023-05-07T04:17:40.762Z,102253.19
2023-05-07T04:20:11.605Z,102259.34
2023-05-07T04:22:39.372Z,102257.66
2023-05-07T04:25:08.975Z,102260.19
2023-05-07T04:27:36.642Z,102258.09
2023-05-07T04:30:04.673Z,102270.38
2023-05-07T04:32:32.730Z,102264.66
2023-05-07T04:35:01.749Z,102265.50
2023-05-07T04:37:29.438Z,102272.34
2023-05-07T04:39:57.049Z,102274.34
2023-05-07T04:42:25.127Z,102275.28
2023-05-07T04:44:55.709Z,102274.97
2023-05-07T04:47:23.401Z,102272.88
2023-05-07T04:49:50.985Z,102281.66
2023-05-07T04:52:20.290Z,102276.22
2023-05-07T04:54:48.178Z,102278.88
2023-05-07T04:57:15.822Z,102277.91
2023-05-07T04:59:43.448Z,102271.44
2023-05-07T05:02:12.687Z,102261.63
2023-05-07T05:04:40.288Z,102269.31
2023-05-07T05:07:07.879Z,102267.72
2023-05-07T05:09:36.841Z,102277.63
2023-05-07T05:12:04.876Z,102270.16
2023-05-07T05:14:32.586Z,102277.25
2023-05-07T05:17:00.261Z,102271.63
2023-05-07T05:19:27.957Z,102277.66
2023-05-07T05:21:56.039Z,102278.50
2023-05-07T05:24:23.964Z,102281.97
2023-05-07T05:26:55.486Z,102281.84
2023-05-07T05:29:23.099Z,102279.72
2023-05-07T05:31:50.777Z,102285.72
2023-05-07T05:34:20.557Z,102287.56
2023-05-07T05:36:48.282Z,102289.38
2023-05-07T05:39:16.095Z,102282.91
2023-05-07T05:41:43.798Z,102287.94
2023-05-07T05:44:12.817Z,102290.16
2023-05-07T05:46:41.054Z,102300.25
2023-05-07T05:49:08.653Z,102285.66
2023-05-07T05:51:37.231Z,102293.91
2023-05-07T05:54:05.668Z,102288.72
2023-05-07T05:56:33.310Z,102284.91
2023-05-07T05:59:01.046Z,102293.91
2023-05-07T06:01:30.114Z,102291.97
2023-05-07T06:03:58.336Z,102290.31
2023-05-07T06:06:26.682Z,102292.03
2023-05-07T06:08:54.344Z,102298.53
2023-05-07T06:11:22.350Z,102303.16
2023-05-07T06:13:50.221Z,102308.06
2023-05-07T06:16:17.956Z,102304.38
2023-05-07T06:18:48.176Z,102313.06
2023-05-07T06:21:16.355Z,102306.38
2023-05-07T06:23:44.022Z,102304.16
2023-05-07T06:26:12.056Z,102288.84
2023-05-07T06:28:39.683Z,102298.97
2023-05-07T06:31:17.338Z,102299.03
2023-05-07T06:33:47.281Z,102307.16
2023-05-07T06:36:16.375Z,102301.06
2023-05-07T06:38:44.041Z,102303.50
2023-05-07T06:41:11.645Z,102307.78
2023-05-07T06:43:39.263Z,102305.25
2023-05-07T06:46:07.377Z,102301.06
2023-05-07T06:48:35.015Z,102306.88
2023-05-07T06:51:02.684Z,102308.41
2023-05-07T06:53:31.765Z,102310.44
2023-05-07T06:55:59.380Z,102311.19
2023-05-07T06:58:27.441Z,102307.56
2023-05-07T07:00:55.042Z,102308.66
2023-05-07T07:03:22.665Z,102303.84
2023-05-07T07:05:53.530Z,102307.63
2023-05-07T07:08:22.141Z,102316.88
2023-05-07T07:10:51.430Z,102312.13
2023-05-07T07:13:19.117Z,102313.91
2023-05-07T07:15:47.054Z,102322.56
2023-05-07T07:18:14.685Z,102328.84
2023-05-07T07:20:42.298Z,102312.38
2023-05-07T07:23:10.001Z,102325.09
2023-05-07T07:25:37.784Z,102314.78
2023-05-07T07:28:07.724Z,102317.13
2023-05-07T07:30:35.555Z,102308.03
2023-05-07T07:33:04.138Z,102304.38
2023-05-07T07:35:32.749Z,102314.09
2023-05-07T07:38:00.767Z,102312.88
2023-05-07T07:40:28.426Z,102314.38
2023-05-07T07:42:56.127Z,102312.63
2023-05-07T07:45:25.375Z,102324.50
2023-05-07T07:47:53.171Z,102316.50
2023-05-07T07:50:35.738Z,102318.53
2023-05-07T07:53:08.413Z,102320.41
2023-05-07T07:55:41.077Z,102311.56
2023-05-07T07:58:08.922Z,102311.56
2023-05-07T08:00:38.469Z,102298.84
2023-05-07T08:03:07.817Z,102310.72
2023-05-07T08:05:35.634Z,102309.03
2023-05-07T08:08:03.668Z,102311.88
2023-05-07T08:10:35.232Z,102309.00
2023-05-07T08:13:04.995Z,102298.78
2023-05-07T08:15:33.216Z,102306.53
2023-05-07T08:18:04.033Z,102301.38
2023-05-07T08:20:31.699Z,102291.63
2023-05-07T08:22:59.425Z,102294.84
2023-05-07T08:25:27.101Z,102298.19
2023-05-07T08:27:54.710Z,102294.47
2023-05-07T08:30:23.429Z,102288.31
2023-05-07T08:32:51.241Z,102281.44
2023-05-07T08:35:20.471Z,102296.13
2023-05-07T08:37:48.083Z,102298.16
2023-05-07T08:40:16.014Z,102294.88
2023-05-07T08:42:45.120Z,102304.59
2023-05-07T08:45:13.229Z,102292.59
2023-05-07T08:47:46.624Z,102285.91
2023-05-07T08:50:14.723Z,102303.41
2023-05-07T08:52:43.836Z,102302.66
2023-05-07T08:55:13.112Z,102298.97
2023-05-07T08:57:41.137Z,102299.34
2023-05-07T09:00:11.066Z,102297.97
2023-05-07T09:02:39.112Z,102295.53
2023-05-07T09:05:07.842Z,102291.06
2023-05-07T09:07:35.852Z,102298.66
2023-05-07T09:10:06.426Z,102304.97
2023-05-07T09:12:36.498Z,102307.81
2023-05-07T09:15:05.714Z,102304.47
2023-05-07T09:17:33.683Z,102307.22
2023-05-07T09:20:06.107Z,102306.59
2023-05-07T09:22:34.840Z,102311.56
2023-05-07T09:25:03.334Z,102302.31
2023-05-07T09:27:33.446Z,102312.09
2023-05-07T09:30:01.181Z,102312.09
2023-05-07T09:32:29.374Z,102324.94
2023-05-07T09:34:57.013Z,102327.56
2023-05-07T09:37:24.723Z,102302.97
2023-05-07T09:39:52.551Z,102321.28
2023-05-07T09:42:25.378Z,102317.63
2023-05-07T09:44:54.633Z,102311.56
2023-05-07T09:47:23.061Z,102296.31
2023-05-07T09:49:51.825Z,102301.13
2023-05-07T09:52:20.177Z,102305.69
2023-05-07T09:54:50.855Z,102315.19
2023-05-07T09:57:21.372Z,102309.66
2023-05-07T09:59:51.350Z,102318.69
2023-05-07T10:02:22.071Z,102315.75
2023-05-07T10:04:50.613Z,102309.13
2023-05-07T10:07:18.940Z,102300.34
2023-05-07T10:09:49.132Z,102298.19
2023-05-07T10:12:17.588Z,102312.25
2023-05-07T10:14:45.779Z,102302.53
2023-05-07T10:17:14.422Z,102287.28
2023-05-07T10:19:46.309Z,102304.63
2023-05-07T10:22:15.942Z,102312.78
2023-05-07T10:24:46.765Z,102309.78
2023-05-07T10:27:17.432Z,102309.56
2023-05-07T10:29:55.750Z,102310.78
2023-05-07T10:32:37.402Z,102311.78
2023-05-07T10:35:12.843Z,102306.84
2023-05-07T10:37:41.287Z,102305.72
2023-05-07T10:40:11.817Z,102308.28
2023-05-07T10:42:39.542Z,102309.50
2023-05-07T10:45:17.771Z,102313.06
2023-05-07T10:48:27.889Z,102311.31
2023-05-07T10:51:22.274Z,102312.03
2023-05-07T10:53:49.974Z,102319.00
2023-05-07T10:56:31.006Z,102306.31
2023-05-07T10:59:41.651Z,102312.59
2023-05-07T11:02:10.887Z,102316.13
2023-05-07T11:04:39.958Z,102328.09
2023-05-07T11:07:27.533Z,102296.53
2023-05-07T11:10:02.224Z,102308.25
2023-05-07T11:12:53.055Z,102304.31
2023-05-07T11:15:43.163Z,102300.66
2023-05-07T11:18:12.334Z,102298.16
2023-05-07T11:20:56.727Z,102299.75
2023-05-07T11:23:59.589Z,102301.50
2023-05-07T11:26:29.370Z,102316.44
2023-05-07T11:28:57.790Z,102303.22
2023-05-07T11:31:30.334Z,102301.66
2023-05-07T11:33:58.769Z,102301.41
2023-05-07T11:36:28.098Z,102297.16
2023-05-07T11:38:55.703Z,102305.78
2023-05-07T11:41:23.722Z,102301.31
2023-05-07T11:44:01.500Z,102296.59
2023-05-07T11:46:31.101Z,102304.09
2023-05-07T11:48:58.915Z,102291.31
2023-05-07T11:51:28.012Z,102300.97
2023-05-07T11:53:55.910Z,102296.31
2023-05-07T11:56:23.787Z,102279.66
2023-05-07T11:58:53.022Z,102291.94
2023-05-07T12:01:20.781Z,102292.44
2023-05-07T12:03:49.924Z,102300.84
2023-05-07T12:06:19.172Z,102291.66
2023-05-07T12:08:48.603Z,102295.28
2023-05-07T12:11:18.974Z,102287.94
2023-05-07T12:13:46.822Z,102295.75
2023-05-07T12:16:14.873Z,102289.22
2023-05-07T12:18:42.726Z,102289.75
2023-05-07T12:21:12.244Z,102294.78
2023-05-07T12:23:40.642Z,102285.59
2023-05-07T12:26:08.734Z,102295.16
2023-05-07T12:28:40.582Z,102294.31
2023-05-07T12:31:08.957Z,102291.09
2023-05-07T12:33:37.193Z,102299.69
2023-05-07T12:36:07.849Z,102297.63
2023-05-07T12:38:38.762Z,102299.00
2023-05-07T12:41:08.125Z,102290.19
2023-05-07T12:43:36.703Z,102300.97
2023-05-07T12:46:07.317Z,102292.47
2023-05-07T12:48:35.614Z,102285.78
2023-05-07T12:51:04.028Z,102296.97
2023-05-07T12:53:32.355Z,102300.97
2023-05-07T12:56:02.017Z,102310.31
2023-05-07T12:58:31.010Z,102300.34
2023-05-07T13:01:01.079Z,102299.66
2023-05-07T13:03:31.071Z,102291.47
2023-05-07T13:06:00.523Z,102293.47
2023-05-07T13:08:33.197Z,102290.44
2023-05-07T13:11:04.603Z,102295.91
2023-05-07T13:13:32.903Z,102295.56
2023-05-07T13:16:01.429Z,102286.47
2023-05-07T13:18:29.672Z,102286.66
2023-05-07T13:20:57.437Z,102289.41
2023-05-07T13:23:25.928Z,102293.13
2023-05-07T13:25:54.848Z,102304.47
2023-05-07T13:28:23.998Z,102295.22
2023-05-07T13:30:52.785Z,102288.22
2023-05-07T13:33:20.768Z,102284.69
2023-05-07T13:35:48.433Z,102294.31
2023-05-07T13:38:17.207Z,102295.06
2023-05-07T13:40:45.004Z,102286.44
2023-05-07T13:43:12.586Z,102280.66
2023-05-07T13:45:41.627Z,102276.22
2023-05-07T13:48:09.523Z,102280.09
2023-05-07T13:50:37.538Z,102274.09
2023-05-07T13:53:05.161Z,102288.75
2023-05-07T13:55:33.034Z,102292.84
2023-05-07T13:58:02.073Z,102287.78
2023-05-07T14:00:30.472Z,102283.41
2023-05-07T14:02:59.899Z,102276.25
2023-05-07T14:05:28.896Z,102289.84
2023-05-07T14:07:57.466Z,102300.88
2023-05-07T14:10:25.871Z,102280.47
2023-05-07T14:12:55.315Z,102297.41
2023-05-07T14:15:22.950Z,102283.75
2023-05-07T14:17:50.576Z,102279.94
2023-05-07T14:20:19.895Z,102270.41
2023-05-07T14:22:47.618Z,102275.22
2023-05-07T14:25:15.314Z,102271.69
2023-05-07T14:27:42.937Z,102269.16
2023-05-07T14:30:11.066Z,102271.31
2023-05-07T14:32:38.937Z,102274.72
2023-05-07T14:35:07.034Z,102267.72
2023-05-07T14:37:36.056Z,102256.72
2023-05-07T14:40:03.824Z,102254.41
2023-05-07T14:42:31.520Z,102265.84
2023-05-07T14:44:59.466Z,102268.16
2023-05-07T14:47:27.331Z,102264.28
2023-05-07T14:49:55.378Z,102265.41
2023-05-07T14:52:22.964Z,102273.03
2023-05-07T14:54:52.031Z,102271.13
2023-05-07T14:57:20.272Z,102273.59
2023-05-07T14:59:47.997Z,102265.63
2023-05-07T15:02:16.566Z,102274.94
2023-05-07T15:04:46.849Z,102268.03
2023-05-07T15:07:15.966Z,102271.75
2023-05-07T15:09:43.711Z,102283.47
2023-05-07T15:12:13.260Z,102281.44
2023-05-07T15:14:41.253Z,102286.22
2023-05-07T15:17:09.296Z,102284.78
2023-05-07T15:19:36.953Z,102287.56
2023-05-07T15:22:04.996Z,102291.34
2023-05-07T15:24:33.137Z,102292.81
2023-05-07T15:27:01.867Z,102291.13
2023-05-07T15:29:30.889Z,102296.59
2023-05-07T15:31:58.965Z,102300.72
2023-05-07T15:34:26.621Z,102306.88
2023-05-07T15:36:54.215Z,102291.97
2023-05-07T15:39:23.580Z,102315.63
2023-05-07T15:41:52.734Z,102312.34
2023-05-07T15:44:20.405Z,102295.44
2023-05-07T15:46:49.326Z,102313.63
2023-05-07T15:49:16.921Z,102307.47
2023-05-07T15:51:44.475Z,102313.50
2023-05-07T15:54:12.192Z,102304.78
2023-05-07T15:56:39.795Z,102300.72
2023-05-07T15:59:07.714Z,102293.34
2023-05-07T16:01:35.515Z,102299.16
2023-05-07T16:04:05.026Z,102296.59
2023-05-07T16:06:32.918Z,102297.63
2023-05-07T16:09:00.645Z,102302.38
2023-05-07T16:11:30.378Z,102304.41
2023-05-07T16:13:59.677Z,102300.31
2023-05-07T16:16:29.860Z,102296.59
2023-05-07T16:18:57.606Z,102289.97
2023-05-07T16:21:26.608Z,102299.41
2023-05-07T16:23:54.264Z,102283.34
2023-05-07T16:26:21.869Z,102298.00
2023-05-07T16:28:49.542Z,102303.00
2023-05-07T16:31:17.156Z,102288.66
2023-05-07T16:33:45.018Z,102295.97
2023-05-07T16:36:12.655Z,102291.16
2023-05-07T16:38:41.645Z,102293.66
2023-05-07T16:41:09.335Z,102291.38
2023-05-07T16:43:36.945Z,102298.03
2023-05-07T16:46:04.698Z,102304.16
2023-05-07T16:48:32.338Z,102292.38
2023-05-07T16:51:00.065Z,102296.44
2023-05-07T16:53:28.101Z,102305.19
2023-05-07T16:55:57.312Z,102295.66
2023-05-07T16:58:25.005Z,102301.38
2023-05-07T17:00:52.669Z,102300.81
2023-05-07T17:03:20.411Z,102302.28
2023-05-07T17:05:48.256Z,102306.72
2023-05-07T17:08:15.944Z,102308.38
2023-05-07T17:10:43.558Z,102307.38
2023-05-07T17:13:12.994Z,102308.50
2023-05-07T17:15:43.447Z,102295.09
2023-05-07T17:18:11.279Z,102309.91
2023-05-07T17:20:39.878Z,102303.13
2023-05-07T17:23:07.649Z,102309.09
2023-05-07T17:25:35.977Z,102299.38
2023-05-07T17:28:03.587Z,102306.13
2023-05-07T17:30:32.634Z,102294.47
2023-05-07T17:33:12.862Z,102302.53
2023-05-07T17:35:47.440Z,102306.63
2023-05-07T17:38:15.083Z,102311.06
2023-05-07T17:40:42.721Z,102301.66
2023-05-07T17:43:10.339Z,102304.38
2023-05-07T17:45:39.395Z,102309.75
2023-05-07T17:48:07.299Z,102314.91
2023-05-07T17:50:35.267Z,102308.88
2023-05-07T17:53:02.927Z,102312.28
2023-05-07T17:55:33.404Z,102313.81
2023-05-07T17:58:02.573Z,102309.97
2023-05-07T18:00:30.362Z,102319.31
2023-05-07T18:03:00.620Z,102314.97
2023-05-07T18:05:28.590Z,102317.31
2023-05-07T18:07:56.622Z,102325.63
2023-05-07T18:10:24.493Z,102326.13
2023-05-07T18:12:52.160Z,102329.16
2023-05-07T18:15:20.033Z,102329.38
2023-05-07T18:17:47.718Z,102328.22
2023-05-07T18:20:16.851Z,102324.53
2023-05-07T18:22:44.875Z,102334.25
2023-05-07T18:25:12.637Z,102341.13
2023-05-07T18:27:40.248Z,102348.78
2023-05-07T18:30:09.021Z,102348.31
2023-05-07T18:32:36.725Z,102353.34
2023-05-07T18:35:04.785Z,102343.63
2023-05-07T18:37:34.608Z,102347.97
2023-05-07T18:40:04.006Z,102351.63
2023-05-07T18:42:33.960Z,102356.31
2023-05-07T18:45:03.060Z,102348.75
2023-05-07T18:47:30.929Z,102349.56
2023-05-07T18:49:58.568Z,102355.25
2023-05-07T18:52:26.187Z,102356.88
2023-05-07T18:54:55.685Z,102354.19
2023-05-07T18:57:23.409Z,102365.84
2023-05-07T18:59:53.435Z,102366.69
2023-05-07T19:02:21.154Z,102364.13
2023-05-07T19:04:49.110Z,102369.94
2023-05-07T19:07:16.987Z,102368.75
2023-05-07T19:09:57.218Z,102372.91
2023-05-07T19:12:33.042Z,102370.88
2023-05-07T19:15:00.640Z,102383.03
2023-05-07T19:17:28.389Z,102388.81
2023-05-07T19:19:56.051Z,102390.28
2023-05-07T19:22:23.665Z,102392.44
2023-05-07T19:24:51.691Z,102399.22
2023-05-07T19:27:19.262Z,102403.22
2023-05-07T19:29:48.269Z,102406.22
2023-05-07T19:32:16.144Z,102408.50
2023-05-07T19:34:43.719Z,102412.31
2023-05-07T19:37:11.394Z,102404.78
2023-05-07T19:39:38.961Z,102411.09
2023-05-07T19:42:07.531Z,102411.28
2023-05-07T19:44:35.194Z,102417.59
2023-05-07T19:47:05.602Z,102416.38
2023-05-07T19:49:33.337Z,102421.19
2023-05-07T19:52:00.976Z,102411.66
2023-05-07T19:54:29.586Z,102422.63
2023-05-07T19:56:57.483Z,102429.25
2023-05-07T19:59:25.675Z,102426.59
2023-05-07T20:01:54.261Z,102421.56
2023-05-07T20:04:28.959Z,102420.22
2023-05-07T20:06:57.389Z,102431.88
2023-05-07T20:09:25.101Z,102431.19
2023-05-07T20:11:52.710Z,102430.47
2023-05-07T20:14:20.550Z,102441.16
2023-05-07T20:16:49.031Z,102443.09
2023-05-07T20:19:17.803Z,102448.75
2023-05-07T20:21:46.859Z,102451.53
2023-05-07T20:24:14.502Z,102456.06
2023-05-07T20:26:42.130Z,102454.50
2023-05-07T20:29:09.764Z,102451.16
2023-05-07T20:31:37.607Z,102454.31
2023-05-07T20:34:05.471Z,102447.28
2023-05-07T20:36:33.050Z,102452.91
2023-05-07T20:39:01.998Z,102453.09
2023-05-07T20:41:29.587Z,102451.53
2023-05-07T20:43:57.773Z,102456.84
2023-05-07T20:46:27.220Z,102454.34
2023-05-07T20:48:55.065Z,102456.19
2023-05-07T20:51:22.778Z,102459.69
2023-05-07T20:53:50.428Z,102463.19
2023-05-07T20:56:19.380Z,102451.03
2023-05-07T20:58:46.943Z,102452.84
2023-05-07T21:01:14.722Z,102466.16
2023-05-07T21:03:42.393Z,102460.84
2023-05-07T21:06:10.032Z,102463.63
2023-05-07T21:08:37.665Z,102463.09
2023-05-07T21:11:06.061Z,102464.09
2023-05-07T21:13:35.062Z,102471.38
2023-05-07T21:16:02.647Z,102467.06
2023-05-07T21:18:30.798Z,102465.53
2023-05-07T21:20:58.508Z,102471.84
2023-05-07T21:23:26.153Z,102475.47
2023-05-07T21:25:53.846Z,102475.66
2023-05-07T21:28:21.433Z,102467.94
2023-05-07T21:30:50.488Z,102474.41
2023-05-07T21:33:18.175Z,102474.41
2023-05-07T21:35:45.817Z,102470.91
2023-05-07T21:38:13.696Z,102471.03
2023-05-07T21:40:41.449Z,102475.00
2023-05-07T21:43:09.011Z,102469.81
2023-05-07T21:45:36.617Z,102479.78
2023-05-07T21:48:06.274Z,102475.44
2023-05-07T21:50:34.149Z,102482.06
2023-05-07T21:53:01.744Z,102474.38
2023-05-07T21:55:29.431Z,102476.31
2023-05-07T21:58:05.107Z,102480.13
2023-05-07T22:00:34.018Z,102483.75
2023-05-07T22:03:01.767Z,102485.75
2023-05-07T22:05:30.892Z,102476.06
2023-05-07T22:07:58.453Z,102481.56
2023-05-07T22:10:26.081Z,102487.16
2023-05-07T22:12:53.938Z,102481.69
2023-05-07T22:15:21.768Z,102479.19
2023-05-07T22:17:49.438Z,102489.16
2023-05-07T22:20:17.335Z,102483.94
2023-05-07T22:22:52.273Z,102478.91
2023-05-07T22:25:21.084Z,102487.59
2023-05-07T22:27:49.303Z,102497.72
2023-05-07T22:30:17.360Z,102495.19
2023-05-07T22:32:46.177Z,102502.63
2023-05-07T22:35:15.037Z,102493.94
2023-05-07T22:37:42.724Z,102501.38
2023-05-07T22:40:12.935Z,102493.53
2023-05-07T22:42:40.905Z,102498.31
2023-05-07T22:45:09.542Z,102495.78
2023-05-07T22:47:37.622Z,102503.09
2023-05-07T22:50:06.418Z,102501.56
2023-05-07T22:52:34.866Z,102505.19
2023-05-07T22:55:02.704Z,102504.78
2023-05-07T22:57:31.665Z,102500.31
2023-05-07T22:59:59.301Z,102502.41
2023-05-07T23:02:29.026Z,102495.56
2023-05-07T23:04:59.606Z,102504.66
2023-05-07T23:07:27.835Z,102508.31
2023-05-07T23:09:55.449Z,102508.44
2023-05-07T23:12:23.426Z,102518.09
2023-05-07T23:14:52.388Z,102511.09
2023-05-07T23:17:20.863Z,102511.25
2023-05-07T23:19:48.593Z,102508.75
2023-05-07T23:22:16.827Z,102512.50
2023-05-07T23:24:44.513Z,102510.84
2023-05-07T23:27:12.091Z,102511.81
2023-05-07T23:29:39.699Z,102513.63
2023-05-07T23:32:08.631Z,102513.50
2023-05-07T23:34:36.194Z,102520.34
2023-05-07T23:37:03.855Z,102520.34
2023-05-07T23:39:31.505Z,102515.03
2023-05-07T23:41:59.228Z,102525.53
2023-05-07T23:44:26.873Z,102520.06
2023-05-07T23:46:54.555Z,102517.41
2023-05-07T23:49:23.511Z,102525.41
2023-05-07T23:51:51.354Z,102536.88
2023-05-07T23:54:19.553Z,102530.72
2023-05-07T23:56:47.255Z,102533.50
2023-05-07T23:59:14.897Z,102531.84
